Time;durP1;ratioP1;P1;durP2;ratioP2;P2;SDS_P1;SDS_P2;PMS_P1;PMS_P2;Temp;Humidity;BMP_temperature;BMP_pressure;BME280_temperature;BME280_humidity;BME280_pressure;Samples;Min_cycle;Max_cycle;Signal;HPM_P1;HPM_P2
2022/04/30 00:01:18;;;;;;;14.00;13.00;;;10.00;99.90;;;10.83;74.44;98359.84;5245083;28;20232;-56
2022/04/30 00:03:52;;;;;;;14.03;12.93;;;10.00;99.90;;;10.87;73.42;98357.47;5242852;28;20203;-56
2022/04/30 00:06:25;;;;;;;13.57;12.37;;;10.10;99.90;;;10.88;73.16;98352.47;5244593;28;20703;-54
2022/04/30 00:08:58;;;;;;;13.43;12.40;;;10.10;99.90;;;10.76;73.04;98344.91;5245544;28;20277;-56
2022/04/30 00:11:32;;;;;;;13.90;12.90;;;9.90;99.90;;;10.80;74.18;98351.97;5243191;28;20299;-53
2022/04/30 00:14:05;;;;;;;13.83;12.73;;;10.00;99.90;;;10.87;74.33;98347.25;5244090;28;20294;-53
2022/04/30 00:16:38;;;;;;;13.70;12.60;;;10.00;99.90;;;10.88;75.12;98349.94;5241053;28;20315;-55
2022/04/30 00:19:11;;;;;;;12.07;11.17;;;10.00;99.90;;;10.83;73.57;98357.28;5243739;28;20204;-51
2022/04/30 00:21:44;;;;;;;12.80;11.83;;;10.00;99.90;;;10.89;74.98;98355.91;5242783;28;20243;-53
2022/04/30 00:24:17;;;;;;;12.73;11.73;;;10.10;99.90;;;10.89;74.27;98355.91;5243731;28;20295;-56
2022/04/30 00:26:52;;;;;;;12.17;11.27;;;10.10;99.90;;;10.91;75.07;98355.22;5241318;28;20311;-52
2022/04/30 00:29:25;;;;;;;11.80;10.90;;;10.10;99.90;;;10.90;75.54;98352.56;5242204;28;20204;-57
2022/04/30 00:32:01;;;;;;;11.87;10.83;;;10.10;99.90;;;10.87;75.42;98353.25;5241858;28;20295;-53
2022/04/30 00:34:35;;;;;;;11.40;10.50;;;10.10;99.90;;;10.88;74.83;98349.94;5243575;28;20195;-57
2022/04/30 00:37:08;;;;;;;11.70;10.63;;;10.00;99.90;;;10.86;74.73;98346.38;5239366;28;20775;-55
2022/04/30 00:39:41;;;;;;;11.47;10.63;;;10.00;99.90;;;10.82;75.32;98345.31;5243993;28;20706;-55
2022/04/30 00:42:15;;;;;;;12.23;11.23;;;9.90;99.90;;;10.81;76.09;98337.53;5244253;28;20197;-55
2022/04/30 00:44:49;;;;;;;12.20;11.20;;;9.90;99.90;;;10.79;74.93;98340.00;5240943;28;20304;-55
2022/04/30 00:47:22;;;;;;;11.37;10.57;;;9.90;99.90;;;10.77;75.73;98336.44;5241888;28;20523;-57
2022/04/30 00:49:55;;;;;;;12.03;11.13;;;9.90;99.90;;;10.78;75.74;98333.09;5244915;28;20240;-51
2022/04/30 00:52:29;;;;;;;12.07;11.17;;;9.90;99.90;;;10.82;76.00;98323.97;5241744;28;20204;-55
2022/04/30 00:55:03;;;;;;;11.83;10.97;;;9.90;99.90;;;10.92;75.65;98322.88;5242847;28;20244;-51
2022/04/30 00:57:40;;;;;;;13.00;12.10;;;10.00;99.90;;;10.90;76.32;98316.75;5242944;28;20220;-52
2022/04/30 01:00:14;;;;;;;12.93;11.93;;;10.00;99.90;;;10.91;76.86;98322.00;5243478;28;20192;-55
2022/04/30 01:02:47;;;;;;;13.20;12.13;;;10.00;99.90;;;10.86;75.75;98330.16;5243023;28;20283;-54
2022/04/30 01:05:20;;;;;;;13.43;12.50;;;10.00;99.90;;;10.80;75.99;98330.66;5242400;28;20292;-52
2022/04/30 01:07:54;;;;;;;13.77;12.67;;;9.90;99.90;;;10.74;74.84;98331.16;5242317;28;20217;-56
2022/04/30 01:10:28;;;;;;;12.90;11.90;;;9.80;99.90;;;10.72;76.30;98324.16;5242770;28;20240;-54
2022/04/30 01:13:03;;;;;;;12.43;11.53;;;9.80;99.90;;;10.70;76.06;98320.59;5241257;28;20231;-54
2022/04/30 01:15:37;;;;;;;12.77;11.67;;;9.80;99.90;;;10.69;76.33;98319.72;5242715;28;20204;-55
2022/04/30 01:18:11;;;;;;;12.30;11.40;;;9.80;99.90;;;10.67;76.99;98317.84;5243150;28;20657;-54
2022/04/30 01:20:51;;;;;;;12.97;12.07;;;9.80;99.90;;;10.67;77.87;98323.84;5242836;28;20685;-54
2022/04/30 01:23:27;;;;;;;13.07;12.03;;;9.80;99.90;;;10.62;76.57;98312.47;5240735;28;20224;-57
2022/04/30 01:26:01;;;;;;;12.83;11.93;;;9.70;99.90;;;10.62;77.14;98315.03;5242059;28;20248;-52
2022/04/30 01:28:34;;;;;;;12.07;11.23;;;9.70;99.90;;;10.55;78.11;98311.16;5241572;28;20262;-53
2022/04/30 01:37:22;;;;;;;12.00;11.10;;;9.70;99.90;;;10.61;77.19;98308.13;5241372;28;20205;-55
2022/04/30 01:39:43;;;;;;;11.67;10.87;;;9.90;99.90;;;10.70;78.35;98311.28;5242154;28;20690;-55
2022/04/30 01:42:17;;;;;;;12.20;11.10;;;9.90;99.90;;;10.77;77.39;98315.13;5242013;28;20279;-55
2022/04/30 01:44:50;;;;;;;12.77;11.77;;;9.80;99.90;;;10.77;76.87;98321.09;5242516;28;20591;-54
2022/04/30 01:47:24;;;;;;;13.00;12.00;;;9.80;99.90;;;10.82;77.88;98319.72;5244280;28;20753;-56
2022/04/30 01:49:57;;;;;;;13.93;12.80;;;9.80;99.90;;;10.80;76.99;98320.41;5241717;28;20287;-55
2022/04/30 01:52:31;;;;;;;13.07;12.03;;;9.70;99.90;;;10.75;76.82;98324.34;5241481;28;20291;-56
2022/04/30 01:55:06;;;;;;;12.47;11.57;;;9.70;99.90;;;10.52;78.32;98328.00;5242846;28;20309;-52
2022/04/30 01:57:40;;;;;;;12.63;11.73;;;9.60;99.90;;;10.55;77.82;98325.63;5240106;28;20255;-53
2022/04/30 02:00:15;;;;;;;13.50;12.40;;;9.60;99.90;;;10.53;78.06;98328.09;5239138;28;20209;-51
2022/04/30 02:02:50;;;;;;;13.20;12.10;;;9.60;99.90;;;10.58;78.82;98320.72;5241538;28;20668;-52
2022/04/30 02:05:26;;;;;;;13.53;12.50;;;9.70;99.90;;;10.59;79.15;98325.06;5242668;28;20682;-52
2022/04/30 02:08:03;;;;;;;12.57;11.60;;;9.70;99.90;;;10.60;78.86;98322.59;5240033;28;20224;-54
2022/04/30 02:10:40;;;;;;;12.70;11.70;;;9.70;99.90;;;10.60;79.27;98322.59;5242908;28;20279;-54
2022/04/30 02:13:15;;;;;;;13.57;12.43;;;9.70;99.90;;;10.52;79.72;98315.22;5240986;28;20783;-52
2022/04/30 02:15:49;;;;;;;13.30;12.30;;;9.60;99.90;;;10.51;79.67;98316.88;5240114;28;20311;-51
2022/04/30 02:18:25;;;;;;;13.37;12.33;;;9.60;99.90;;;10.53;79.70;98297.44;5242336;28;20652;-54
2022/04/30 02:20:59;;;;;;;14.60;13.43;;;9.60;99.90;;;10.50;79.21;98298.88;5242819;28;20262;-53
2022/04/30 02:23:33;;;;;;;13.37;12.27;;;9.60;99.90;;;10.46;80.14;98292.69;5241382;28;20288;-53
2022/04/30 02:26:09;;;;;;;13.93;12.93;;;9.50;99.90;;;10.33;79.57;98285.94;5239847;28;20251;-57
2022/04/30 02:28:42;;;;;;;12.80;11.77;;;9.40;99.90;;;10.36;79.74;98286.13;5243555;28;20300;-57
2022/04/30 02:31:21;;;;;;;14.07;12.97;;;9.50;99.90;;;10.42;80.36;98294.97;5245208;28;20614;-57
2022/04/30 02:33:56;;;;;;;14.20;13.13;;;9.50;99.90;;;10.46;79.87;98296.94;5245422;28;20266;-55
2022/04/30 02:36:30;;;;;;;13.87;12.80;;;9.60;99.90;;;10.48;79.82;98297.91;5241103;28;20286;-56
2022/04/30 02:39:03;;;;;;;14.10;13.00;;;9.60;99.90;;;10.41;79.48;98296.63;5240244;28;20200;-54
2022/04/30 02:41:38;;;;;;;13.20;12.20;;;9.50;99.90;;;10.42;79.68;98290.75;5240856;28;20232;-52
2022/04/30 02:44:11;;;;;;;13.70;12.60;;;9.50;99.90;;;10.38;80.43;98286.19;5246193;28;20216;-53
2022/04/30 02:46:44;;;;;;;13.80;12.70;;;9.40;99.90;;;10.35;80.80;98289.44;5245474;28;20247;-53
2022/04/30 02:49:17;;;;;;;13.60;12.57;;;9.50;99.90;;;10.31;80.44;98289.16;5246543;28;20212;-52
2022/04/30 02:51:51;;;;;;;14.43;13.43;;;9.40;99.90;;;10.15;80.80;98274.47;5245468;28;20228;-55
2022/04/30 02:54:23;;;;;;;13.87;12.77;;;9.30;99.90;;;10.12;80.71;98276.81;5245561;28;20287;-53
2022/04/30 02:56:58;;;;;;;14.27;13.17;;;9.30;99.90;;;10.10;80.68;98284.41;5244728;28;20224;-53
2022/04/30 03:02:22;;;;;;;13.70;12.60;;;9.20;99.90;;;10.20;81.40;98292.66;5242184;28;20197;-52
2022/04/30 03:04:55;;;;;;;14.57;13.37;;;9.30;99.90;;;10.19;81.56;98288.31;5245945;28;20197;-55
2022/04/30 03:07:28;;;;;;;14.23;13.13;;;9.30;99.90;;;10.18;82.02;98292.53;5245746;28;20262;-54
2022/04/30 03:10:01;;;;;;;14.37;13.13;;;9.30;99.90;;;10.25;81.64;98292.16;5246062;28;20232;-56
2022/04/30 03:12:36;;;;;;;13.30;12.27;;;9.40;99.90;;;10.33;81.12;98295.22;5242882;28;20283;-57
2022/04/30 03:15:10;;;;;;;14.20;13.10;;;9.40;99.90;;;10.33;80.80;98293.59;5244558;28;20641;-57
2022/04/30 03:23:26;;;;;;;14.60;13.50;;;9.50;99.90;;;10.33;81.45;98293.59;5242412;28;20224;-57
2022/04/30 03:25:59;;;;;;;14.53;13.47;;;9.40;99.90;;;10.27;81.20;98289.72;5241421;28;20728;-57
2022/04/30 03:28:35;;;;;;;13.93;12.93;;;9.30;99.90;;;10.22;81.71;98297.09;5236018;28;20299;-58
2022/04/30 03:31:11;;;;;;;13.33;12.33;;;9.30;99.90;;;10.21;81.13;98294.41;5242568;28;20201;-55
2022/04/30 03:33:44;;;;;;;14.13;12.93;;;9.30;99.90;;;10.19;81.36;98302.00;5241563;28;20279;-57
2022/04/30 03:36:18;;;;;;;13.50;12.40;;;9.30;99.90;;;10.24;81.29;98308.25;5245390;28;20692;-56
2022/04/30 03:38:51;;;;;;;13.87;12.87;;;9.30;99.90;;;10.23;81.04;98314.16;5243205;28;20289;-55
2022/04/30 03:41:24;;;;;;;13.10;12.10;;;9.30;99.90;;;10.21;81.12;98308.06;5242702;28;20608;-57
2022/04/30 03:44:00;;;;;;;13.67;12.77;;;9.30;99.90;;;10.22;81.35;98301.31;5243043;28;20807;-56
2022/04/30 03:46:33;;;;;;;14.63;13.63;;;9.30;99.90;;;10.23;80.78;98293.72;5242017;28;20298;-53
2022/04/30 03:49:07;;;;;;;14.10;13.10;;;9.30;99.90;;;10.21;82.03;98285.06;5244419;28;20216;-54
2022/04/30 03:51:40;;;;;;;14.47;13.37;;;9.30;99.90;;;10.10;81.54;98286.03;5243206;28;20197;-55
2022/04/30 03:54:13;;;;;;;15.30;14.10;;;9.20;99.90;;;10.10;81.85;98286.03;5244979;28;20288;-57
2022/04/30 03:56:46;;;;;;;14.93;13.73;;;9.20;99.90;;;10.09;82.18;98286.84;5241690;28;20311;-56
2022/04/30 03:59:20;;;;;;;14.20;13.20;;;9.20;99.90;;;10.01;81.30;98290.56;5245078;28;20284;-57
2022/04/30 04:01:53;;;;;;;14.13;13.03;;;9.10;99.90;;;10.03;81.21;98294.97;5239222;28;20292;-56
2022/04/30 04:04:27;;;;;;;13.37;12.47;;;9.10;99.90;;;10.02;81.39;98297.44;5244983;28;20652;-55
2022/04/30 04:07:00;;;;;;;13.60;12.40;;;9.10;99.90;;;10.04;82.07;98301.84;5242789;28;20235;-53
2022/04/30 04:09:33;;;;;;;13.90;12.90;;;9.10;99.90;;;10.07;81.58;98302.06;5244736;28;20744;-56
2022/04/30 04:12:08;;;;;;;15.03;13.73;;;9.10;99.90;;;10.02;81.12;98300.00;5241243;28;20617;-55
2022/04/30 04:17:39;;;;;;;14.37;13.37;;;9.00;99.90;;;9.98;81.95;98304.00;5241904;28;20310;-56
2022/04/30 04:20:14;;;;;;;14.60;13.50;;;9.10;99.90;;;9.93;83.16;98307.94;5205452;28;1074332;-58
2022/04/30 04:22:47;;;;;;;13.90;13.00;;;9.00;99.90;;;9.94;82.28;98312.25;5241268;28;20541;-54
2022/04/30 04:28:11;;;;;;;15.27;14.07;;;9.10;99.90;;;10.02;83.58;98323.88;5244962;28;20579;-56
2022/04/30 04:30:46;;;;;;;15.83;14.60;;;9.20;99.90;;;10.05;83.53;98334.28;5243864;28;20765;-56
2022/04/30 04:33:19;;;;;;;15.17;13.97;;;9.20;99.90;;;10.05;83.05;98339.38;5242782;28;20750;-55
2022/04/30 04:35:52;;;;;;;16.87;15.67;;;9.20;99.90;;;10.10;81.91;98342.22;5245638;28;20311;-57
2022/04/30 04:38:25;;;;;;;16.63;15.33;;;9.20;99.90;;;10.02;83.08;98346.84;5244700;28;20640;-57
2022/04/30 04:40:59;;;;;;;16.30;15.07;;;9.20;99.90;;;10.00;82.37;98338.19;5241664;28;20611;-57
2022/04/30 04:43:32;;;;;;;15.80;14.60;;;9.20;99.90;;;10.04;83.59;98344.38;5243339;28;20204;-56
2022/04/30 04:46:06;;;;;;;16.13;14.93;;;9.20;99.90;;;10.12;83.19;98345.78;5245095;28;20723;-51
2022/04/30 04:48:40;;;;;;;16.47;15.27;;;9.30;99.90;;;10.12;83.59;98345.78;5237607;28;20241;-54
2022/04/30 04:51:13;;;;;;;16.20;14.90;;;9.30;99.90;;;10.20;82.95;98342.06;5239088;28;20387;-54
2022/04/30 04:53:46;;;;;;;16.23;14.93;;;9.40;99.90;;;10.27;82.72;98356.16;5239181;28;20200;-54
2022/04/30 04:56:19;;;;;;;16.40;15.10;;;9.40;99.90;;;10.28;82.59;98353.72;5240796;28;20996;-54
2022/04/30 04:58:52;;;;;;;16.23;14.93;;;9.40;99.90;;;10.30;83.00;98361.47;5240090;28;21049;-56
2022/04/30 05:01:26;;;;;;;15.17;14.07;;;9.40;99.90;;;10.37;83.26;98361.97;5243003;28;20315;-55
2022/04/30 05:04:00;;;;;;;16.03;14.77;;;9.50;99.90;;;10.46;83.38;98365.94;5241761;28;20757;-54
2022/04/30 05:06:33;;;;;;;16.60;15.30;;;9.50;99.90;;;10.49;83.13;98361.91;5240717;28;20648;-57
2022/04/30 05:09:06;;;;;;;15.87;14.67;;;9.60;99.90;;;10.56;83.18;98365.75;5237928;28;20211;-58
2022/04/30 05:11:39;;;;;;;16.90;15.60;;;9.70;99.90;;;10.60;82.99;98368.59;5239631;28;20234;-56
2022/04/30 05:14:12;;;;;;;17.90;16.37;;;9.80;99.90;;;10.71;82.96;98369.28;5242614;28;20201;-51
2022/04/30 05:16:47;;;;;;;17.03;15.53;;;9.90;99.90;;;10.77;83.34;98372.25;5238829;28;20307;-55
2022/04/30 05:19:20;;;;;;;16.27;15.17;;;9.90;99.90;;;10.93;81.74;98371.56;5239104;28;20249;-51
2022/04/30 05:21:54;;;;;;;15.90;14.63;;;10.00;99.90;;;10.95;82.46;98379.31;5240147;28;20940;-51
2022/04/30 05:24:27;;;;;;;16.00;14.80;;;10.00;99.90;;;10.98;81.36;98379.50;5240672;28;20205;-52
2022/04/30 05:27:00;;;;;;;16.13;14.93;;;10.00;99.90;;;11.06;80.79;98388.56;5242129;28;20319;-55
2022/04/30 05:29:33;;;;;;;14.67;13.57;;;10.10;99.90;;;11.12;80.91;98391.50;5240166;28;20287;-54
2022/04/30 05:32:08;;;;;;;15.53;14.33;;;10.10;99.90;;;11.09;80.46;98385.31;5240844;28;20221;-57
2022/04/30 05:34:41;;;;;;;15.13;14.03;;;10.10;99.90;;;11.18;79.38;98391.00;5239456;28;20239;-52
2022/04/30 05:37:15;;;;;;;15.48;14.18;;;10.10;99.90;;;11.19;79.79;98390.25;5241921;28;20463;-54
2022/04/30 05:39:48;;;;;;;15.80;14.60;;;10.10;99.90;;;11.17;79.79;98390.13;5240936;28;20607;-54
2022/04/30 05:42:21;;;;;;;14.60;13.50;;;10.10;99.90;;;11.17;79.89;98379.91;5238538;28;20656;-53
2022/04/30 05:44:54;;;;;;;23.03;20.97;;;10.10;99.90;;;11.07;79.40;98387.75;5239708;28;20216;-53
2022/04/30 05:47:28;;;;;;;23.45;21.42;;;10.00;99.90;;;11.08;79.55;98388.69;5242191;28;20758;-51
2022/04/30 05:50:01;;;;;;;23.23;21.20;;;10.10;99.90;;;11.16;80.36;98384.91;5241676;28;20540;-52
2022/04/30 05:52:34;;;;;;;21.87;20.07;;;10.20;99.90;;;11.26;79.72;98390.72;5239532;28;20232;-51
2022/04/30 05:55:09;;;;;;;18.97;17.43;;;10.30;99.90;;;11.35;80.46;98400.63;5238474;28;20189;-51
2022/04/30 05:57:42;;;;;;;19.02;17.45;;;10.30;99.90;;;11.36;79.49;98393.84;5237567;28;20303;-54
2022/04/30 06:00:17;;;;;;;21.20;19.50;;;10.30;99.90;;;11.38;78.73;98394.81;5239323;28;20295;-51
2022/04/30 06:02:51;;;;;;;19.77;18.03;;;10.30;99.90;;;11.39;79.61;98394.94;5242219;28;20283;-52
2022/04/30 06:05:25;;;;;;;18.70;17.20;;;10.30;99.90;;;11.39;78.93;98391.47;5241801;28;20683;-55
2022/04/30 06:07:59;;;;;;;17.55;16.15;;;10.30;99.90;;;11.40;79.43;98385.56;5238560;28;20312;-52
2022/04/30 06:10:32;;;;;;;17.57;16.20;;;10.40;99.90;;;11.42;79.74;98391.69;5241882;28;20286;-54
2022/04/30 06:13:08;;;;;;;18.23;16.73;;;10.50;99.90;;;11.48;80.25;98384.38;5241017;28;20744;-52
2022/04/30 06:15:42;;;;;;;20.37;18.67;;;10.60;99.90;;;11.55;80.75;98391.63;5242970;28;20651;-53
2022/04/30 06:18:17;;;;;;;19.05;17.35;;;10.70;99.90;;;11.67;80.65;98377.00;5240184;28;20232;-51
2022/04/30 06:20:50;;;;;;;19.20;17.40;;;10.70;99.90;;;11.77;80.73;98381.03;5241559;28;20235;-51
2022/04/30 06:23:23;;;;;;;20.90;19.05;;;10.80;99.90;;;11.90;81.40;98385.25;5239719;28;20197;-52
2022/04/30 06:25:57;;;;;;;21.45;19.35;;;10.90;99.90;;;11.96;81.85;98383.06;5241266;28;20722;-55
2022/04/30 06:28:31;;;;;;;21.13;19.20;;;11.00;99.90;;;11.94;82.76;98385.53;5242572;28;20539;-54
2022/04/30 06:31:04;;;;;;;21.25;19.27;;;11.00;99.90;;;12.06;82.71;98385.38;5243588;28;20230;-54
2022/04/30 06:33:39;;;;;;;22.58;20.25;;;11.10;99.90;;;12.16;82.89;98382.59;5234798;28;20201;-52
2022/04/30 06:36:12;;;;;;;23.60;21.17;;;11.20;99.90;;;12.28;82.91;98381.53;5239486;28;20248;-52
2022/04/30 06:38:45;;;;;;;24.50;22.00;;;11.30;99.90;;;12.39;82.98;98390.75;5241452;28;20288;-52
2022/04/30 06:41:21;;;;;;;25.27;22.67;;;11.40;99.90;;;12.51;84.51;98383.75;5243920;28;20287;-55
2022/04/30 06:43:54;;;;;;;25.27;22.58;;;11.60;99.90;;;12.67;83.75;98387.19;5239607;28;20204;-55
2022/04/30 06:46:27;;;;;;;23.67;21.25;;;11.70;99.90;;;12.77;83.11;98394.63;5241341;28;20334;-51
2022/04/30 06:49:01;;;;;;;25.17;22.13;;;11.80;99.90;;;12.92;82.93;98386.91;5242623;28;20243;-54
2022/04/30 06:51:34;;;;;;;27.55;23.90;;;11.90;99.90;;;13.03;82.03;98402.09;5242157;28;20258;-54
2022/04/30 06:57:11;;;;;;;26.85;24.00;;;12.00;99.90;;;13.11;82.44;98397.41;5240600;28;20720;-56
2022/04/30 06:59:45;;;;;;;29.92;25.42;;;12.10;99.90;;;13.27;81.48;98399.16;5239111;28;20216;-54
2022/04/30 07:02:21;;;;;;;26.35;23.50;;;12.10;99.90;;;13.32;81.22;98405.44;5240976;28;20220;-56
2022/04/30 07:04:56;;;;;;;25.70;23.10;;;12.20;99.90;;;13.39;80.78;98404.06;5242079;28;20279;-52
2022/04/30 07:07:29;;;;;;;26.48;23.67;;;12.20;99.90;;;13.37;81.35;98401.44;5241992;28;20303;-54
2022/04/30 07:10:03;;;;;;;29.00;24.20;;;12.30;99.90;;;13.55;81.18;98396.41;5241254;28;20629;-56
2022/04/30 07:12:36;;;;;;;27.58;24.73;;;12.40;99.90;;;13.82;79.84;98401.25;5240042;28;20796;-55
2022/04/30 07:15:11;;;;;;;26.17;23.42;;;12.70;99.90;;;14.00;78.76;98403.94;5242626;28;20223;-56
2022/04/30 07:17:46;;;;;;;28.38;23.48;;;12.90;99.90;;;14.34;77.64;98410.00;5244950;28;20254;-52
2022/04/30 07:20:21;;;;;;;25.88;23.15;;;13.20;99.90;;;14.52;75.72;98402.38;5244114;28;20747;-55
2022/04/30 07:22:54;;;;;;;26.27;23.55;;;13.40;99.90;;;14.86;74.12;98399.78;5244919;28;20287;-54
2022/04/30 07:25:27;;;;;;;25.95;23.17;;;13.50;99.90;;;14.86;74.16;98401.47;5244553;28;20243;-52
2022/04/30 07:28:00;;;;;;;26.05;23.42;;;13.60;99.90;;;14.96;73.72;98403.66;5246374;28;20232;-56
2022/04/30 07:30:33;;;;;;;24.35;21.85;;;13.70;99.90;;;15.23;72.88;98396.41;5246005;28;20319;-52
2022/04/30 07:33:06;;;;;;;26.10;23.40;;;13.90;99.90;;;15.32;71.50;98398.53;5245682;28;20612;-51
2022/04/30 07:35:40;;;;;;;24.77;22.15;;;14.10;99.90;;;15.42;70.66;98394.66;5246590;28;20698;-54
2022/04/30 07:38:13;;;;;;;26.33;22.95;;;14.00;99.90;;;15.33;71.01;98401.16;5244733;28;20940;-52
2022/04/30 07:40:46;;;;;;;26.05;22.42;;;14.00;99.90;;;15.35;71.10;98403.81;5244724;28;20235;-55
2022/04/30 07:43:20;;;;;;;24.77;22.13;;;13.90;99.90;;;15.32;71.24;98399.41;5244956;28;20286;-55
2022/04/30 07:45:53;;;;;;;24.33;21.83;;;13.90;99.90;;;15.38;70.61;98397.94;5244447;28;20293;-56
2022/04/30 07:48:26;;;;;;;23.90;21.60;;;14.00;99.90;;;15.32;71.40;98394.25;5245602;28;20736;-55
2022/04/30 07:51:00;;;;;;;23.65;21.08;;;14.00;99.90;;;15.30;71.41;98397.56;5244600;28;20223;-54
2022/04/30 07:53:33;;;;;;;22.38;20.23;;;14.00;99.90;;;15.37;69.76;98396.19;5245593;28;20275;-52
2022/04/30 07:56:06;;;;;;;22.30;20.23;;;14.10;99.90;;;15.47;69.04;98388.03;5244757;28;20343;-55
2022/04/30 07:58:39;;;;;;;23.50;21.30;;;14.00;99.90;;;15.46;69.04;98381.13;5243832;28;20695;-55
2022/04/30 08:01:13;;;;;;;22.63;20.27;;;14.00;99.90;;;15.49;69.50;98373.56;5244424;28;20287;-51
2022/04/30 08:03:46;;;;;;;23.02;20.65;;;14.10;99.90;;;15.64;68.61;98379.41;5244863;28;20249;-52
2022/04/30 08:06:21;;;;;;;22.92;20.63;;;14.20;99.90;;;15.55;67.93;98371.25;5241671;28;20224;-52
2022/04/30 08:08:54;;;;;;;23.25;21.05;;;14.20;99.90;;;15.53;68.10;98378.03;5242165;28;20228;-54
2022/04/30 08:11:27;;;;;;;23.75;21.42;;;14.20;99.90;;;15.51;68.27;98375.38;5243644;28;20312;-57
2022/04/30 08:14:00;;;;;;;24.98;22.58;;;14.20;99.90;;;15.59;68.43;98378.28;5243715;28;20655;-52
2022/04/30 08:16:34;;;;;;;23.13;20.80;;;14.20;99.90;;;15.40;69.10;98391.16;5244839;28;20233;-52
2022/04/30 08:19:07;;;;;;;24.02;21.65;;;14.10;99.90;;;15.28;69.80;98384.63;5240762;28;20216;-55
2022/04/30 08:21:43;;;;;;;25.50;22.85;;;14.00;99.90;;;15.32;69.83;98386.53;5238647;28;20628;-57
2022/04/30 08:24:36;;;;;;;24.95;22.38;;;14.00;99.90;;;15.08;70.92;98383.69;5238289;28;20311;-55
2022/04/30 08:27:09;;;;;;;24.30;21.92;;;13.90;99.90;;;15.15;71.42;98383.97;5241674;28;20259;-52
2022/04/30 08:29:42;;;;;;;24.42;21.85;;;13.80;99.90;;;15.14;71.73;98385.66;5242131;28;20652;-53
2022/04/30 08:32:16;;;;;;;25.35;22.67;;;13.80;99.90;;;15.02;72.25;98393.69;5242205;28;20656;-53
2022/04/30 08:34:49;;;;;;;24.58;22.05;;;13.80;99.90;;;14.99;72.22;98392.63;5244942;28;20224;-53
2022/04/30 08:37:23;;;;;;;25.83;23.08;;;13.70;99.90;;;14.90;72.65;98395.66;5244967;28;20303;-55
2022/04/30 08:39:56;;;;;;;25.88;23.25;;;13.50;99.90;;;14.69;72.79;98398.06;5243529;28;20295;-55
2022/04/30 08:42:32;;;;;;;22.55;20.25;;;13.50;99.90;;;14.74;72.50;98399.19;5243171;28;20258;-54
2022/04/30 08:45:10;;;;;;;25.38;22.75;;;13.60;99.90;;;14.73;73.24;98407.69;5242364;28;20737;-51
2022/04/30 08:47:47;;;;;;;25.38;22.73;;;13.60;99.90;;;14.77;72.70;98401.91;5240012;28;20633;-55
2022/04/30 08:50:20;;;;;;;24.85;22.23;;;13.60;99.90;;;14.76;72.46;98405.25;5243452;28;20227;-52
2022/04/30 08:52:55;;;;;;;26.45;23.65;;;13.60;99.90;;;14.87;71.31;98406.69;5244056;28;20285;-57
2022/04/30 08:55:28;;;;;;;24.95;22.38;;;13.70;99.90;;;14.94;71.25;98407.00;5242151;28;20228;-55
2022/04/30 08:58:02;;;;;;;23.85;21.25;;;13.60;99.90;;;14.91;70.99;98404.25;5243396;28;20296;-57
2022/04/30 09:00:42;;;;;;;26.10;23.52;;;13.60;99.90;;;14.80;71.84;98407.19;5244022;28;20696;-51
2022/04/30 09:03:17;;;;;;;25.55;23.05;;;13.60;99.90;;;14.84;72.41;98403.94;5242107;28;20295;-52
2022/04/30 09:05:50;;;;;;;25.55;22.83;;;13.70;99.90;;;14.80;73.37;98404.63;5242020;28;20715;-55
2022/04/30 09:08:25;;;;;;;25.90;23.30;;;13.70;99.90;;;14.93;72.25;98410.38;5239197;28;20236;-53
2022/04/30 09:11:06;;;;;;;25.20;22.73;;;13.80;99.90;;;14.87;74.52;98404.09;5245194;28;20196;-55
2022/04/30 09:13:44;;;;;;;24.58;21.95;;;13.70;99.90;;;14.80;74.58;98407.19;5233149;28;20642;-53
2022/04/30 09:16:21;;;;;;;27.33;24.58;;;13.70;99.90;;;14.80;75.69;98409.78;5239713;28;20263;-53
2022/04/30 09:19:02;;;;;;;27.50;24.77;;;13.60;99.90;;;14.78;75.27;98407.94;5240991;28;20219;-53
2022/04/30 09:21:36;;;;;;;26.85;24.10;;;13.60;99.90;;;14.85;75.16;98407.41;5242695;28;20235;-54
2022/04/30 09:24:11;;;;;;;25.90;23.15;;;13.60;99.90;;;14.90;74.19;98407.66;5233475;28;20239;-53
2022/04/30 09:26:44;;;;;;;24.70;22.20;;;13.70;99.90;;;15.00;73.38;98405.59;5238108;28;20247;-52
2022/04/30 09:29:22;;;;;;;25.35;22.75;;;13.70;99.90;;;15.10;73.54;98406.91;5241779;28;20193;-52
2022/04/30 09:31:55;;;;;;;24.73;22.33;;;13.70;99.90;;;15.10;73.20;98407.78;5241618;28;20328;-53
2022/04/30 09:37:43;;;;;;;22.02;19.80;;;14.10;99.90;;;15.35;72.31;98405.53;5207358;28;20307;-52
2022/04/30 09:40:24;;;;;;;24.83;22.25;;;14.10;99.90;;;15.32;71.17;98404.56;5244676;28;20572;-51
2022/04/30 09:42:57;;;;;;;23.77;21.38;;;14.20;99.90;;;15.19;70.97;98402.19;5241225;28;20193;-55
2022/04/30 09:45:32;;;;;;;23.42;21.15;;;13.90;99.90;;;15.15;70.91;98402.88;5240835;28;20228;-55
2022/04/30 09:53:56;;;;;;;24.15;21.90;;;13.70;99.90;;;15.12;70.94;98405.31;5241977;28;20227;-55
2022/04/30 09:53:57;;;;;;;22.67;20.55;;;13.70;99.90;;;14.95;71.56;98414.78;5242889;28;20696;-58
2022/04/30 09:56:36;;;;;;;22.30;20.20;;;13.60;99.90;;;14.93;71.94;98412.94;5242512;28;20317;-54
2022/04/30 09:59:12;;;;;;;22.00;20.00;;;13.60;99.90;;;15.03;71.57;98412.59;5240839;28;20212;-52
2022/04/30 10:01:47;;;;;;;21.85;19.85;;;13.80;99.90;;;14.94;71.57;98414.72;5237579;28;20196;-53
2022/04/30 10:04:21;;;;;;;21.65;19.75;;;13.70;99.90;;;14.95;70.82;98416.47;5240730;28;20220;-53
2022/04/30 10:06:54;;;;;;;21.33;19.33;;;13.60;99.90;;;14.88;71.54;98415.31;5235583;28;20252;-52
2022/04/30 10:09:33;;;;;;;21.70;19.50;;;13.60;99.90;;;14.82;71.68;98420.13;5241728;28;20631;-52
2022/04/30 10:12:17;;;;;;;21.00;19.08;;;13.60;99.90;;;14.77;72.98;98419.91;5239947;28;20779;-55
2022/04/30 10:15:05;;;;;;;22.25;20.20;;;13.60;99.90;;;14.88;72.10;98420.47;5235867;28;20222;-52
2022/04/30 10:17:42;;;;;;;22.42;20.27;;;13.60;99.90;;;15.00;70.96;98415.03;5241159;28;20310;-56
2022/04/30 10:20:29;;;;;;;20.23;18.30;;;13.70;99.90;;;14.90;72.15;98410.22;5238032;28;20227;-55
2022/04/30 10:23:04;;;;;;;21.60;19.70;;;13.70;99.90;;;14.91;72.88;98410.31;5241026;28;20564;-56
2022/04/30 10:25:43;;;;;;;20.42;18.60;;;13.60;99.90;;;14.98;72.62;98403.75;5247039;28;20283;-52
2022/04/30 10:28:22;;;;;;;21.98;19.83;;;13.70;99.90;;;14.92;71.95;98408.59;5240343;28;20590;-55
2022/04/30 10:31:01;;;;;;;22.70;20.42;;;13.70;99.90;;;14.98;72.27;98403.75;5239607;28;20279;-53
2022/04/30 10:33:35;;;;;;;22.95;20.40;;;13.70;99.90;;;15.03;71.00;98399.72;5243182;28;20692;-54
2022/04/30 10:36:10;;;;;;;25.63;23.13;;;13.70;99.90;;;15.06;72.23;98405.88;5244769;28;20251;-53
2022/04/30 10:38:54;;;;;;;21.92;19.77;;;13.90;99.90;;;15.14;71.47;98403.69;5244417;28;20240;-52
2022/04/30 10:41:27;;;;;;;19.60;17.70;;;14.00;99.90;;;15.22;70.48;98406.59;5246585;28;20209;-53
2022/04/30 10:44:04;;;;;;;17.90;16.38;;;14.20;99.90;;;15.45;68.93;98407.69;5245122;28;20623;-52
2022/04/30 10:46:39;;;;;;;19.40;17.52;;;14.20;99.90;;;15.43;67.97;98411.91;5237119;28;20303;-54
2022/04/30 10:49:12;;;;;;;18.83;17.05;;;14.30;99.90;;;15.64;67.36;98410.31;5246732;28;20246;-57
2022/04/30 10:51:45;;;;;;;18.67;16.92;;;14.50;99.90;;;15.67;66.98;98405.31;5245040;28;20735;-57
2022/04/30 10:54:19;;;;;;;16.42;14.93;;;14.50;99.90;;;15.53;67.53;98406.34;5245788;28;20651;-56
2022/04/30 10:57:03;;;;;;;15.30;13.90;;;14.50;99.90;;;15.71;66.83;98398.66;5247652;28;20717;-58
2022/04/30 10:59:38;;;;;;;12.98;11.88;;;14.40;99.90;;;15.77;66.15;98404.06;5244544;28;20226;-57
2022/04/30 11:02:12;;;;;;;12.57;11.57;;;14.40;99.90;;;15.86;66.09;98403.59;5247562;28;20203;-56
2022/04/30 11:04:46;;;;;;;12.05;11.05;;;14.50;99.90;;;15.80;65.47;98403.34;5249298;28;20196;-57
2022/04/30 11:07:20;;;;;;;13.68;12.27;;;14.50;99.90;;;15.86;63.19;98403.59;5247232;28;20270;-58